Time;durP1;ratioP1;P1;durP2;ratioP2;P2;SDS_P1;SDS_P2;PMS_P1;PMS_P2;Temp;Humidity;BMP_temperature;BMP_pressure;BME280_temperature;BME280_humidity;BME280_pressure;Samples;Min_cycle;Max_cycle;Signal;HPM_P1;HPM_P2
2022/05/25 00:00:12;;;;;;;8.10;1.77;;;12.70;99.90;;;;;;5051740;28;20426;-70
2022/05/25 00:02:58;;;;;;;3.93;1.50;;;12.50;99.90;;;;;;5046140;28;20447;-71
2022/05/25 00:05:43;;;;;;;7.40;1.60;;;12.50;99.90;;;;;;5051467;28;20494;-71
2022/05/25 00:08:29;;;;;;;2.67;1.20;;;12.60;99.90;;;;;;5050535;28;20516;-71
2022/05/25 00:11:16;;;;;;;3.00;1.77;;;12.80;99.90;;;;;;5052747;28;20545;-69
2022/05/25 00:14:02;;;;;;;3.50;1.53;;;12.90;99.90;;;;;;5055481;28;20516;-69
2022/05/25 00:16:48;;;;;;;2.80;1.83;;;13.00;99.90;;;;;;5053964;28;20779;-71
2022/05/25 00:22:43;;;;;;;7.67;1.40;;;13.00;99.90;;;;;;5049295;28;20433;-70
2022/05/25 00:25:33;;;;;;;2.57;1.43;;;13.10;99.90;;;;;;5049373;28;20463;-69
2022/05/25 00:28:20;;;;;;;2.70;1.20;;;13.00;99.90;;;;;;5055971;28;20426;-70
2022/05/25 00:31:08;;;;;;;2.00;1.40;;;13.00;99.90;;;;;;5055247;28;20422;-69
2022/05/25 00:33:54;;;;;;;4.17;1.90;;;13.00;99.90;;;;;;5048185;28;20467;-71
2022/05/25 00:36:39;;;;;;;3.00;1.40;;;12.90;99.90;;;;;;5052525;28;20560;-71
2022/05/25 00:39:25;;;;;;;3.10;1.30;;;12.90;99.90;;;;;;5050989;28;20451;-70
2022/05/25 00:42:12;;;;;;;2.90;1.57;;;12.90;99.90;;;;;;5048112;28;20439;-71
2022/05/25 00:44:59;;;;;;;4.43;1.30;;;13.00;99.90;;;;;;5052731;28;20481;-71
2022/05/25 00:47:48;;;;;;;2.30;1.43;;;13.10;99.90;;;;;;5050289;28;20414;-70
2022/05/25 00:53:34;;;;;;;6.23;1.40;;;13.00;99.90;;;;;;5051583;28;20455;-72
2022/05/25 00:56:22;;;;;;;3.07;1.60;;;12.90;99.90;;;;;;5052542;28;20413;-70
2022/05/25 00:59:12;;;;;;;2.83;1.13;;;12.90;99.90;;;;;;5054765;28;20436;-70
2022/05/25 01:01:59;;;;;;;2.80;1.60;;;13.00;99.90;;;;;;5050645;28;20948;-70
2022/05/25 01:04:47;;;;;;;8.90;2.13;;;13.00;99.90;;;;;;5050520;28;20727;-70
2022/05/25 01:07:48;;;;;;;2.60;1.83;;;13.20;99.90;;;;;;5051179;28;20430;-70
2022/05/25 01:10:46;;;;;;;4.80;1.63;;;13.30;99.90;;;;;;5048402;28;20564;-71
2022/05/25 01:13:43;;;;;;;2.80;1.70;;;13.30;99.90;;;;;;5050138;28;20553;-71
2022/05/25 01:16:36;;;;;;;6.17;1.77;;;13.20;99.90;;;;;;5052656;28;20445;-70
2022/05/25 01:19:44;;;;;;;2.70;1.40;;;13.10;99.90;;;;;;5052120;28;20518;-70
2022/05/25 01:22:58;;;;;;;5.97;1.90;;;13.10;99.90;;;;;;5047890;28;20545;-71
2022/05/25 01:26:20;;;;;;;2.50;1.40;;;13.10;99.90;;;;;;5051299;28;20951;-71
2022/05/25 01:29:18;;;;;;;2.60;1.60;;;13.20;99.90;;;;;;5052936;28;20450;-71
2022/05/25 01:32:12;;;;;;;3.50;1.80;;;13.20;99.90;;;;;;5049391;28;20517;-70
2022/05/25 01:35:03;;;;;;;5.10;1.37;;;13.20;99.90;;;;;;5050853;28;20464;-71
2022/05/25 01:37:54;;;;;;;2.57;1.47;;;13.30;99.90;;;;;;5050722;28;20512;-70
2022/05/25 01:40:45;;;;;;;3.43;1.50;;;13.30;99.90;;;;;;5049627;28;20838;-70
2022/05/25 01:43:37;;;;;;;2.60;1.50;;;13.40;99.90;;;;;;5049999;28;20417;-71
2022/05/25 01:46:26;;;;;;;3.43;1.47;;;13.50;99.90;;;;;;5051056;28;21096;-70
2022/05/25 01:49:17;;;;;;;3.80;1.60;;;13.40;99.90;;;;;;5052183;28;20607;-71
2022/05/25 01:52:06;;;;;;;2.20;1.30;;;13.30;99.90;;;;;;5047213;28;20460;-69
2022/05/25 01:54:55;;;;;;;3.07;1.70;;;13.10;99.90;;;;;;5052150;28;20649;-70
2022/05/25 01:57:44;;;;;;;3.30;1.63;;;13.10;99.90;;;;;;5053970;28;20447;-70
2022/05/25 02:00:34;;;;;;;2.80;1.40;;;13.20;99.90;;;;;;5052001;28;20447;-71
2022/05/25 02:06:44;;;;;;;2.97;1.57;;;13.30;99.90;;;;;;5054518;28;20434;-70
2022/05/25 02:09:58;;;;;;;2.27;1.50;;;13.40;99.90;;;;;;5047281;28;20997;-70
2022/05/25 02:13:00;;;;;;;4.57;2.03;;;13.40;99.90;;;;;;5049932;28;20417;-69
2022/05/25 02:15:58;;;;;;;2.60;1.67;;;13.30;99.90;;;;;;5049584;28;20440;-71
2022/05/25 02:18:51;;;;;;;5.43;1.33;;;13.30;99.90;;;;;;5051505;28;20557;-71
2022/05/25 02:21:46;;;;;;;3.53;1.40;;;13.30;99.90;;;;;;5050211;28;20455;-71
2022/05/25 02:24:36;;;;;;;2.73;1.30;;;13.30;99.90;;;;;;5052091;28;21299;-71
2022/05/25 02:27:29;;;;;;;3.70;1.63;;;13.30;99.90;;;;;;5054496;28;20418;-71
2022/05/25 02:30:18;;;;;;;3.17;1.60;;;13.20;99.90;;;;;;5057327;28;20453;-70
2022/05/25 02:33:10;;;;;;;5.00;1.80;;;13.20;99.90;;;;;;5056288;28;20931;-71
2022/05/25 02:35:58;;;;;;;1.83;1.13;;;13.20;99.90;;;;;;5053263;28;20517;-71
2022/05/25 02:38:46;;;;;;;6.07;1.73;;;13.10;99.90;;;;;;5051912;28;20430;-69
2022/05/25 02:41:33;;;;;;;4.77;1.70;;;13.20;99.90;;;;;;5051214;28;20433;-71
2022/05/25 02:44:19;;;;;;;2.90;1.57;;;13.00;99.90;;;;;;5054679;28;21085;-70
2022/05/25 02:47:05;;;;;;;6.73;1.50;;;12.80;99.90;;;;;;5056339;28;20628;-71
2022/05/25 02:49:51;;;;;;;4.30;2.13;;;12.70;99.90;;;;;;5049014;28;20658;-70
2022/05/25 02:52:37;;;;;;;2.50;1.70;;;12.50;99.90;;;;;;5051155;28;20766;-70
2022/05/25 02:55:24;;;;;;;5.47;2.23;;;12.40;99.90;;;;;;5053551;28;20453;-71
2022/05/25 02:58:10;;;;;;;6.60;1.93;;;12.40;99.90;;;;;;5053270;28;20846;-70
2022/05/25 03:00:56;;;;;;;3.87;1.87;;;12.40;99.90;;;;;;5048208;28;20482;-70
2022/05/25 03:03:42;;;;;;;2.70;1.53;;;12.30;99.90;;;;;;5056349;28;20422;-70
2022/05/25 03:06:27;;;;;;;2.70;1.70;;;12.30;99.90;;;;;;5054574;28;20447;-72
2022/05/25 03:09:13;;;;;;;2.13;1.53;;;12.40;99.90;;;;;;5053446;28;20482;-71
2022/05/25 03:12:02;;;;;;;3.90;1.77;;;12.30;99.90;;;;;;5053089;28;20808;-70
2022/05/25 03:14:48;;;;;;;2.60;1.80;;;12.30;99.90;;;;;;5053142;28;20463;-70
2022/05/25 03:17:33;;;;;;;3.47;1.30;;;12.00;99.90;;;;;;5053998;28;20793;-71
2022/05/25 03:20:20;;;;;;;5.80;1.60;;;11.90;99.90;;;;;;5054494;28;20854;-70
2022/05/25 03:23:05;;;;;;;2.77;1.63;;;11.80;99.90;;;;;;5055007;28;20438;-70
2022/05/25 03:25:51;;;;;;;4.50;1.53;;;11.80;99.90;;;;;;5053507;28;20556;-71
2022/05/25 03:28:38;;;;;;;3.70;1.30;;;11.70;99.90;;;;;;5054237;28;20421;-70
2022/05/25 03:31:24;;;;;;;3.03;1.80;;;11.80;99.90;;;;;;5048621;28;20414;-71
2022/05/25 03:34:10;;;;;;;5.90;1.93;;;11.90;99.90;;;;;;5038631;28;20810;-70
2022/05/25 03:36:56;;;;;;;2.60;1.33;;;11.80;99.90;;;;;;5050150;28;20556;-70
2022/05/25 03:39:41;;;;;;;2.97;1.50;;;11.90;99.90;;;;;;5052981;28;20410;-70
2022/05/25 03:42:27;;;;;;;4.57;1.50;;;12.00;99.90;;;;;;5052558;28;20454;-70
2022/05/25 03:45:16;;;;;;;4.03;2.00;;;11.90;99.90;;;;;;5053020;28;20463;-70
2022/05/25 03:48:07;;;;;;;2.70;1.23;;;11.70;99.90;;;;;;5053639;28;20807;-70
2022/05/25 03:50:52;;;;;;;3.37;1.50;;;11.60;99.90;;;;;;5044862;28;20489;-70
2022/05/25 03:53:38;;;;;;;3.70;1.67;;;11.50;99.90;;;;;;5053988;28;20421;-70
2022/05/25 03:56:25;;;;;;;2.43;1.50;;;11.40;99.90;;;;;;5055559;28;20444;-70
2022/05/25 03:59:11;;;;;;;3.10;1.60;;;11.30;99.90;;;;;;5047351;28;20426;-70
2022/05/25 04:01:58;;;;;;;5.43;1.57;;;11.40;99.90;;;;;;5047396;28;20521;-70
2022/05/25 04:04:43;;;;;;;3.37;2.00;;;11.40;99.90;;;;;;5054389;28;20446;-70
2022/05/25 04:07:29;;;;;;;4.03;1.70;;;11.30;99.90;;;;;;5049939;28;20458;-70
2022/05/25 04:10:17;;;;;;;2.50;1.43;;;11.30;99.90;;;;;;5051729;28;20613;-71
2022/05/25 04:13:03;;;;;;;3.60;1.73;;;11.40;99.90;;;;;;5052121;28;20451;-70
2022/05/25 04:15:49;;;;;;;5.77;2.00;;;11.40;99.90;;;;;;5052460;28;20433;-70
2022/05/25 04:18:36;;;;;;;2.20;1.47;;;11.50;99.90;;;;;;5050819;28;20441;-70
2022/05/25 04:21:22;;;;;;;6.43;2.00;;;11.40;99.90;;;;;;5046453;28;20410;-70
2022/05/25 04:24:08;;;;;;;4.33;1.60;;;11.40;99.90;;;;;;5049800;28;20445;-71
2022/05/25 04:26:54;;;;;;;2.03;1.50;;;11.50;99.90;;;;;;5050657;28;21003;-71
2022/05/25 04:29:40;;;;;;;3.60;1.63;;;11.50;99.90;;;;;;5049606;28;20572;-70
2022/05/25 04:32:25;;;;;;;2.20;1.60;;;11.50;99.90;;;;;;5051698;28;20931;-71
2022/05/25 04:35:14;;;;;;;4.33;2.00;;;11.50;99.90;;;;;;5055354;28;20955;-70
2022/05/25 04:37:59;;;;;;;2.00;1.47;;;11.60;99.90;;;;;;5055028;28;20529;-70
2022/05/25 04:40:46;;;;;;;3.43;2.00;;;11.50;99.90;;;;;;5047098;28;20470;-71
2022/05/25 04:43:31;;;;;;;3.97;1.47;;;11.60;99.90;;;;;;5048725;28;20421;-70
2022/05/25 04:46:17;;;;;;;3.43;2.10;;;11.80;99.90;;;;;;5052920;28;20446;-70
2022/05/25 04:49:03;;;;;;;4.03;1.83;;;11.80;99.90;;;;;;5048207;28;20530;-70
2022/05/25 04:51:50;;;;;;;2.63;1.47;;;11.90;99.90;;;;;;5046628;28;20547;-71
2022/05/25 04:54:36;;;;;;;2.00;1.27;;;11.90;99.90;;;;;;5050046;28;20909;-71
2022/05/25 04:57:22;;;;;;;4.57;2.20;;;12.10;99.90;;;;;;5054574;28;20455;-70
2022/05/25 05:00:09;;;;;;;10.87;2.40;;;12.20;99.90;;;;;;5046247;28;20448;-71
2022/05/25 05:02:55;;;;;;;3.70;1.73;;;12.40;99.90;;;;;;5049725;28;20462;-70
2022/05/25 05:05:40;;;;;;;3.30;2.20;;;12.50;99.90;;;;;;5050038;28;20463;-71
2022/05/25 05:08:28;;;;;;;4.97;1.80;;;12.40;99.90;;;;;;5051306;28;20447;-70
2022/05/25 05:11:16;;;;;;;4.03;1.60;;;12.60;99.90;;;;;;5047635;28;20462;-70
2022/05/25 05:14:02;;;;;;;3.77;2.03;;;12.60;99.90;;;;;;5052106;28;20467;-70
2022/05/25 05:16:48;;;;;;;3.40;2.07;;;12.70;99.90;;;;;;5053353;28;20427;-71
2022/05/25 05:19:34;;;;;;;3.20;2.07;;;12.80;99.90;;;;;;5054356;28;20441;-71
2022/05/25 05:22:20;;;;;;;2.80;2.03;;;12.90;99.90;;;;;;5053890;28;20417;-70
2022/05/25 05:25:08;;;;;;;2.37;1.87;;;13.00;99.90;;;;;;5051219;28;20497;-70
2022/05/25 05:27:54;;;;;;;3.20;1.80;;;13.10;99.90;;;;;;5051025;28;20502;-70
2022/05/25 05:30:44;;;;;;;2.57;1.87;;;13.20;99.90;;;;;;5043943;28;20446;-71
2022/05/25 05:33:30;;;;;;;5.27;3.00;;;13.20;99.90;;;;;;5048868;28;20447;-70
2022/05/25 05:36:19;;;;;;;6.10;2.67;;;13.30;99.90;;;;;;5054052;28;20539;-70
2022/05/25 05:39:06;;;;;;;3.87;1.80;;;13.30;99.90;;;;;;5049901;28;20471;-70
2022/05/25 05:41:58;;;;;;;6.00;2.60;;;13.40;99.90;;;;;;5048269;28;20431;-71
2022/05/25 05:44:48;;;;;;;3.07;2.10;;;13.50;99.90;;;;;;5051008;28;20952;-71
2022/05/25 05:47:40;;;;;;;5.50;1.87;;;13.70;99.90;;;;;;5047497;28;20497;-71
2022/05/25 05:50:26;;;;;;;4.00;2.07;;;13.90;99.90;;;;;;5046152;28;20467;-71
2022/05/25 05:53:13;;;;;;;3.80;1.90;;;14.00;99.90;;;;;;5054838;28;20459;-70
2022/05/25 05:56:00;;;;;;;3.37;2.17;;;14.10;99.90;;;;;;5053923;28;20513;-70
2022/05/25 05:58:47;;;;;;;2.87;1.87;;;14.30;99.90;;;;;;5050313;28;20976;-71
2022/05/25 06:01:33;;;;;;;3.90;2.33;;;14.40;99.90;;;;;;5052013;28;20439;-71
2022/05/25 06:04:19;;;;;;;3.77;2.13;;;14.50;99.90;;;;;;5054452;28;20489;-70
2022/05/25 06:07:05;;;;;;;5.30;1.90;;;14.70;99.90;;;;;;5054463;28;20533;-70
2022/05/25 06:09:50;;;;;;;3.60;1.77;;;14.70;99.90;;;;;;5052402;28;20414;-70
2022/05/25 06:12:36;;;;;;;3.60;2.20;;;14.80;99.90;;;;;;5054508;28;20442;-71
2022/05/25 06:21:30;;;;;;;6.27;2.20;;;15.20;99.90;;;;;;5055366;28;20488;-70
2022/05/25 06:24:16;;;;;;;5.23;2.00;;;15.30;99.90;;;;;;5056154;28;20459;-71
2022/05/25 06:27:02;;;;;;;3.17;1.60;;;15.50;99.90;;;;;;5059699;28;20443;-71
2022/05/25 06:29:49;;;;;;;3.50;2.17;;;15.70;99.90;;;;;;5049146;28;20492;-71
2022/05/25 06:32:38;;;;;;;6.27;1.80;;;15.70;99.90;;;;;;5052332;28;20438;-70
2022/05/25 06:35:24;;;;;;;3.93;1.70;;;15.80;99.90;;;;;;5053740;28;20996;-70
2022/05/25 06:38:09;;;;;;;3.17;2.00;;;15.90;99.90;;;;;;5047971;28;20579;-70
2022/05/25 06:40:55;;;;;;;3.63;1.90;;;15.90;99.90;;;;;;5057035;28;20591;-70
2022/05/25 06:43:41;;;;;;;4.27;2.10;;;16.00;99.90;;;;;;5053506;28;20421;-70
2022/05/25 06:46:27;;;;;;;5.20;2.10;;;16.10;99.90;;;;;;5056371;28;20451;-70
2022/05/25 06:49:16;;;;;;;6.43;2.53;;;16.20;99.90;;;;;;5048737;28;20443;-70
2022/05/25 06:52:01;;;;;;;4.10;2.20;;;16.40;99.90;;;;;;5058212;28;20465;-70
2022/05/25 06:54:47;;;;;;;8.13;2.67;;;16.40;99.90;;;;;;5055251;28;20577;-70
2022/05/25 06:57:33;;;;;;;5.03;2.60;;;16.40;99.90;;;;;;5049431;28;20506;-69
2022/05/25 07:00:19;;;;;;;4.20;2.10;;;16.40;99.90;;;;;;5051136;28;20964;-71
2022/05/25 07:03:06;;;;;;;3.70;1.83;;;16.50;99.90;;;;;;5053950;28;20393;-71
2022/05/25 07:05:53;;;;;;;3.57;1.80;;;16.60;99.90;;;;;;5053259;28;20509;-70
2022/05/25 07:08:38;;;;;;;5.00;2.40;;;16.70;99.90;;;;;;5047127;28;20450;-71
2022/05/25 07:11:25;;;;;;;4.00;3.07;;;16.70;99.90;;;;;;5046183;28;20441;-71
2022/05/25 07:14:11;;;;;;;4.33;2.10;;;16.80;99.90;;;;;;5055267;28;20433;-70
2022/05/25 07:16:58;;;;;;;9.23;2.77;;;16.90;99.90;;;;;;5054224;28;20440;-70
2022/05/25 07:19:44;;;;;;;4.33;2.23;;;17.00;97.10;;;;;;5051175;28;20611;-71
2022/05/25 07:22:31;;;;;;;4.43;2.60;;;17.00;97.80;;;;;;5053643;28;20447;-71
2022/05/25 07:25:16;;;;;;;3.33;1.87;;;17.10;99.10;;;;;;5053915;28;20463;-70
2022/05/25 07:28:02;;;;;;;4.60;2.60;;;17.10;95.60;;;;;;5047437;28;20454;-71
2022/05/25 07:30:49;;;;;;;3.40;2.20;;;17.10;94.10;;;;;;5053496;28;20941;-70
2022/05/25 07:33:38;;;;;;;4.70;2.23;;;17.10;92.10;;;;;;5049635;28;20431;-70
2022/05/25 07:36:26;;;;;;;4.03;1.93;;;17.20;93.20;;;;;;5035585;28;21406;-70
2022/05/25 07:39:14;;;;;;;6.40;2.47;;;17.30;90.70;;;;;;5048071;28;20413;-71
2022/05/25 07:42:02;;;;;;;5.10;1.90;;;17.40;91.30;;;;;;5051379;28;20590;-71
2022/05/25 07:44:55;;;;;;;5.23;2.10;;;17.40;89.20;;;;;;5052307;28;20471;-70
2022/05/25 07:47:40;;;;;;;5.10;1.90;;;17.30;90.30;;;;;;5046645;28;20458;-71
2022/05/25 07:50:26;;;;;;;3.17;1.50;;;17.40;82.60;;;;;;5051056;28;20422;-70
2022/05/25 07:56:18;;;;;;;5.70;1.97;;;17.60;82.00;;;;;;5053538;28;20452;-70
2022/05/25 07:59:08;;;;;;;13.93;2.03;;;17.70;82.00;;;;;;5048479;28;20446;-71
2022/05/25 08:08:07;;;;;;;3.37;1.50;;;18.00;78.40;;;;;;5041287;28;20479;-70
2022/05/25 08:10:56;;;;;;;5.53;1.73;;;17.80;66.20;;;;;;5045852;28;20485;-70
2022/05/25 08:13:48;;;;;;;7.40;3.50;;;17.80;72.80;;;;;;5051243;28;20940;-71
2022/05/25 08:16:33;;;;;;;3.00;1.60;;;17.90;73.70;;;;;;5055094;28;20452;-71
2022/05/25 08:19:19;;;;;;;11.63;2.00;;;18.10;75.20;;;;;;5048068;28;20462;-71
2022/05/25 08:22:05;;;;;;;4.63;1.50;;;18.00;73.30;;;;;;5054088;28;20439;-71
2022/05/25 08:24:51;;;;;;;7.83;1.30;;;18.10;75.50;;;;;;5050469;28;20468;-70
2022/05/25 08:27:39;;;;;;;3.10;1.70;;;18.30;75.10;;;;;;5044333;28;20966;-71
2022/05/25 08:30:26;;;;;;;4.93;1.87;;;18.30;73.20;;;;;;5050099;28;20522;-70
2022/05/25 08:33:13;;;;;;;7.07;1.60;;;18.50;71.00;;;;;;5051372;28;20502;-70
2022/05/25 08:36:00;;;;;;;6.63;1.70;;;18.40;63.60;;;;;;5051449;28;20460;-71
2022/05/25 08:38:45;;;;;;;5.57;2.10;;;18.10;65.10;;;;;;5044575;28;20453;-70
2022/05/25 08:41:35;;;;;;;8.33;2.60;;;17.90;68.60;;;;;;5050837;28;20999;-70
2022/05/25 08:44:23;;;;;;;7.80;2.17;;;17.80;70.00;;;;;;5055659;28;20481;-70
2022/05/25 08:47:12;;;;;;;6.10;2.40;;;17.70;71.20;;;;;;5050679;28;20447;-70
2022/05/25 08:49:58;;;;;;;4.47;2.17;;;17.80;68.00;;;;;;5050091;28;20447;-70
2022/05/25 08:52:46;;;;;;;4.27;1.80;;;17.90;70.50;;;;;;5054960;28;20480;-69
2022/05/25 08:55:43;;;;;;;2.93;1.10;;;18.20;70.60;;;;;;5048244;28;20463;-70
2022/05/25 08:58:39;;;;;;;3.23;1.30;;;18.20;65.60;;;;;;5043813;28;20459;-70
2022/05/25 09:01:29;;;;;;;4.27;1.40;;;18.20;63.50;;;;;;5051779;28;20442;-70
2022/05/25 09:04:22;;;;;;;3.53;1.00;;;18.10;63.20;;;;;;5051898;28;20463;-70
2022/05/25 09:07:14;;;;;;;6.63;1.40;;;18.20;65.60;;;;;;5048489;28;20456;-70
2022/05/25 09:10:00;;;;;;;6.23;1.33;;;18.50;64.80;;;;;;5052417;28;20430;-70
2022/05/25 09:12:50;;;;;;;2.50;1.30;;;18.40;60.30;;;;;;5051046;28;21008;-70
2022/05/25 09:16:15;;;;;;;8.33;1.70;;;18.50;62.60;;;;;;5052321;28;20593;-71
2022/05/25 09:18:55;;;;;;;2.67;1.20;;;18.50;60.90;;;;;;5045820;28;20566;-71
2022/05/25 09:21:51;;;;;;;3.37;1.13;;;18.80;62.40;;;;;;5051505;28;20467;-71
2022/05/25 09:24:38;;;;;;;3.00;0.87;;;19.00;58.90;;;;;;5048998;28;20568;-71
2022/05/25 09:27:29;;;;;;;6.50;1.50;;;19.30;58.20;;;;;;5043135;28;20459;-70
2022/05/25 09:30:16;;;;;;;7.30;1.20;;;19.40;56.90;;;;;;5046305;28;20427;-71
2022/05/25 09:33:05;;;;;;;2.73;1.07;;;19.10;53.20;;;;;;5049246;28;20811;-71
2022/05/25 09:35:55;;;;;;;4.00;1.37;;;18.90;56.10;;;;;;5049971;28;20410;-71
2022/05/25 09:38:53;;;;;;;3.40;1.10;;;18.80;55.30;;;;;;5039901;28;20436;-71
2022/05/25 09:41:43;;;;;;;5.07;1.10;;;18.80;57.00;;;;;;5051453;28;20467;-71
2022/05/25 09:44:29;;;;;;;5.03;1.00;;;18.70;58.60;;;;;;5030865;28;21071;-71
2022/05/25 09:47:20;;;;;;;3.60;0.90;;;18.60;58.40;;;;;;5034465;28;20453;-71
2022/05/25 09:50:08;;;;;;;2.93;1.13;;;18.50;58.40;;;;;;5052486;28;20426;-71
2022/05/25 09:52:55;;;;;;;4.13;1.17;;;18.40;56.00;;;;;;5043103;28;20991;-71
2022/05/25 09:55:46;;;;;;;2.10;1.00;;;18.60;58.20;;;;;;5047758;28;20497;-70
2022/05/25 09:58:36;;;;;;;3.07;1.00;;;19.00;58.40;;;;;;5050536;28;20429;-71
2022/05/25 10:01:25;;;;;;;5.93;1.30;;;19.20;56.60;;;;;;5047698;28;20930;-71
2022/05/25 10:04:15;;;;;;;5.30;1.30;;;19.50;56.70;;;;;;5045266;28;20441;-70
2022/05/25 10:07:01;;;;;;;2.90;1.03;;;19.60;55.20;;;;;;5044095;28;20815;-71
2022/05/25 10:09:51;;;;;;;3.40;1.20;;;19.80;47.40;;;;;;5051450;28;20580;-72
2022/05/25 10:12:44;;;;;;;2.27;0.93;;;19.90;47.40;;;;;;5050194;28;20475;-71
2022/05/25 10:15:34;;;;;;;3.80;1.27;;;20.00;51.60;;;;;;5046911;28;20828;-71
2022/05/25 10:18:35;;;;;;;1.73;0.77;;;20.00;51.50;;;;;;5049941;28;20489;-70
2022/05/25 10:21:30;;;;;;;3.50;0.90;;;19.90;45.70;;;;;;5048620;28;20440;-71
2022/05/25 10:24:18;;;;;;;2.87;1.03;;;19.80;48.80;;;;;;5050669;28;20467;-71
2022/05/25 10:27:05;;;;;;;2.57;1.03;;;19.40;47.50;;;;;;5043519;28;21293;-71
2022/05/25 10:39:18;;;;;;;4.83;1.10;;;19.50;52.80;;;;;;5053538;28;20792;-71
2022/05/25 10:42:10;;;;;;;5.10;1.47;;;19.80;47.40;;;;;;5052950;28;20543;-71
2022/05/25 10:45:06;;;;;;;3.43;1.50;;;20.10;49.20;;;;;;5054277;28;20456;-70
2022/05/25 10:47:59;;;;;;;4.23;1.07;;;20.40;46.40;;;;;;5047661;28;20548;-71
2022/05/25 10:50:51;;;;;;;2.57;1.00;;;20.30;44.50;;;;;;5058927;28;21021;-71
2022/05/25 10:53:43;;;;;;;1.73;0.73;;;20.10;44.50;;;;;;5055311;28;20443;-71
2022/05/25 10:56:35;;;;;;;9.20;1.00;;;20.30;46.30;;;;;;5046111;28;20462;-70
2022/05/25 10:59:28;;;;;;;2.83;1.00;;;20.20;41.40;;;;;;5053727;28;20416;-70
2022/05/25 11:02:30;;;;;;;10.87;1.40;;;20.20;44.20;;;;;;5054215;28;20420;-71
2022/05/25 11:05:23;;;;;;;5.90;1.27;;;20.20;45.20;;;;;;5051744;28;20785;-71
2022/05/25 11:08:16;;;;;;;2.00;0.90;;;20.30;47.50;;;;;;5049078;28;20427;-71
2022/05/25 11:11:10;;;;;;;2.20;1.20;;;20.30;44.90;;;;;;5055197;28;20440;-71
2022/05/25 11:14:12;;;;;;;2.80;0.90;;;20.20;43.10;;;;;;5052562;28;20455;-71
2022/05/25 11:17:08;;;;;;;3.03;0.90;;;20.10;46.20;;;;;;5049300;28;20561;-71
2022/05/25 11:20:14;;;;;;;3.03;0.97;;;20.30;43.20;;;;;;5055578;28;21170;-71
2022/05/25 11:23:27;;;;;;;3.83;0.90;;;20.60;44.50;;;;;;5052106;28;20451;-70
2022/05/25 11:26:31;;;;;;;4.00;1.00;;;21.00;42.80;;;;;;5048385;28;20513;-71
2022/05/25 11:29:33;;;;;;;2.40;1.00;;;21.40;40.40;;;;;;5051222;28;20443;-70
2022/05/25 11:32:27;;;;;;;2.47;1.07;;;21.60;40.20;;;;;;5055414;28;20462;-70
2022/05/25 11:35:28;;;;;;;2.33;1.20;;;21.80;38.00;;;;;;5044874;28;20457;-70
2022/05/25 11:38:28;;;;;;;2.93;1.10;;;21.80;37.30;;;;;;5048047;28;20428;-69
2022/05/25 11:41:27;;;;;;;4.30;1.33;;;22.00;37.80;;;;;;5055700;28;20485;-70
2022/05/25 11:44:37;;;;;;;5.30;1.30;;;22.00;36.30;;;;;;5046623;28;20593;-70
2022/05/25 11:47:38;;;;;;;5.37;1.20;;;22.10;38.80;;;;;;5050981;28;20455;-70
2022/05/25 11:50:37;;;;;;;2.57;1.00;;;22.10;36.10;;;;;;5050698;28;20420;-70
2022/05/25 11:53:50;;;;;;;5.50;1.10;;;22.30;36.00;;;;;;5059872;28;20546;-70
2022/05/25 11:56:57;;;;;;;3.67;1.00;;;22.50;37.70;;;;;;5041620;28;20489;-71
2022/05/25 12:00:11;;;;;;;5.10;1.17;;;22.60;34.00;;;;;;5051472;28;20447;-70
2022/05/25 12:03:25;;;;;;;3.73;1.10;;;22.30;33.80;;;;;;5052206;28;20427;-71
2022/05/25 12:06:35;;;;;;;2.00;0.70;;;22.20;34.60;;;;;;5035690;28;20496;-71
2022/05/25 12:09:36;;;;;;;3.33;1.40;;;22.20;32.50;;;;;;5032826;28;20941;-71
2022/05/25 12:12:27;;;;;;;7.27;0.73;;;22.30;33.80;;;;;;5032572;28;20468;-71
2022/05/25 12:15:21;;;;;;;5.37;0.60;;;22.10;30.90;;;;;;5039207;28;20471;-70
2022/05/25 12:18:22;;;;;;;4.03;0.80;;;21.70;30.00;;;;;;5044988;28;20466;-70
2022/05/25 12:21:14;;;;;;;2.67;0.80;;;21.50;33.80;;;;;;5052695;28;20419;-71
2022/05/25 12:24:05;;;;;;;3.10;1.33;;;21.60;34.00;;;;;;5057294;28;20451;-71
2022/05/25 12:26:51;;;;;;;1.83;0.70;;;22.00;33.10;;;;;;5043557;28;20901;-70
2022/05/25 12:29:41;;;;;;;4.00;0.97;;;22.30;32.50;;;;;;5052611;28;20423;-71
2022/05/25 12:32:28;;;;;;;3.77;0.90;;;22.40;29.60;;;;;;5052192;28;20829;-70
2022/05/25 12:35:16;;;;;;;18.17;0.97;;;22.30;30.00;;;;;;5044232;28;20566;-71
2022/05/25 12:38:05;;;;;;;5.60;0.90;;;22.20;29.10;;;;;;5038800;28;20429;-71
2022/05/25 12:40:53;;;;;;;2.33;0.80;;;22.00;28.00;;;;;;5052332;28;20428;-71
2022/05/25 12:43:53;;;;;;;4.00;0.83;;;21.50;27.60;;;;;;5045202;28;20517;-71
2022/05/25 12:50:40;;;;;;;2.60;1.00;;;21.10;30.30;;;;;;5061854;28;20473;-71
2022/05/25 12:53:37;;;;;;;3.37;0.70;;;21.00;30.00;;;;;;5061099;28;20483;-71
2022/05/25 12:56:36;;;;;;;2.30;0.90;;;21.00;30.50;;;;;;5048681;28;21199;-71
2022/05/25 12:59:34;;;;;;;3.43;0.93;;;21.10;31.20;;;;;;5049719;28;20457;-70
2022/05/25 13:02:27;;;;;;;1.97;1.00;;;20.90;29.30;;;;;;5047581;28;20439;-70
2022/05/25 13:05:52;;;;;;;2.30;0.90;;;20.80;29.60;;;;;;5039168;28;20499;-70
2022/05/25 13:09:09;;;;;;;3.13;1.20;;;20.70;31.70;;;;;;5048675;28;20468;-69
2022/05/25 13:11:56;;;;;;;3.13;0.97;;;20.80;33.80;;;;;;5049706;28;20427;-69
2022/05/25 13:14:56;;;;;;;2.00;0.70;;;21.00;34.60;;;;;;5045655;28;20614;-69
2022/05/25 13:17:45;;;;;;;1.80;0.50;;;21.40;33.00;;;;;;5053529;28;20431;-69
2022/05/25 13:21:01;;;;;;;6.77;1.03;;;21.40;29.80;;;;;;5050857;28;21309;-69
2022/05/25 13:24:31;;;;;;;2.00;0.70;;;21.00;32.80;;;;;;5051191;28;20427;-69
2022/05/25 13:27:48;;;;;;;1.90;0.83;;;21.00;32.90;;;;;;5042476;28;20536;-69
2022/05/25 13:30:54;;;;;;;3.10;0.97;;;21.30;31.50;;;;;;5054929;28;20443;-69
2022/05/25 13:33:43;;;;;;;3.87;1.00;;;21.40;30.00;;;;;;5045782;28;20541;-69
2022/05/25 13:36:30;;;;;;;2.97;0.93;;;21.30;31.50;;;;;;5048806;28;20451;-69
2022/05/25 13:39:20;;;;;;;4.90;1.30;;;21.40;31.80;;;;;;5045421;28;20463;-69
2022/05/25 13:42:12;;;;;;;1.40;0.57;;;21.50;31.90;;;;;;5048185;28;20451;-69
2022/05/25 13:45:05;;;;;;;5.63;0.97;;;21.50;32.00;;;;;;5047904;28;20471;-68
2022/05/25 13:47:53;;;;;;;2.07;0.90;;;21.50;31.60;;;;;;5051372;28;20974;-69
2022/05/25 13:50:41;;;;;;;4.70;1.00;;;21.10;29.90;;;;;;5053869;28;20475;-69
2022/05/25 13:56:13;;;;;;;1.93;0.60;;;21.00;32.30;;;;;;5078242;27;20575;-70
2022/05/25 13:59:04;;;;;;;3.63;1.00;;;21.00;32.70;;;;;;5065462;28;20489;-70
2022/05/25 14:01:50;;;;;;;7.53;2.47;;;21.00;32.10;;;;;;5056726;28;20952;-70
2022/05/25 14:04:36;;;;;;;5.87;1.10;;;21.00;34.20;;;;;;5061337;28;21106;-68
2022/05/25 14:07:30;;;;;;;2.53;1.00;;;21.00;34.20;;;;;;5058185;28;21005;-68
2022/05/25 14:13:28;;;;;;;3.10;0.87;;;21.50;31.50;;;;;;5060853;28;20462;-67
2022/05/25 14:16:17;;;;;;;3.10;0.83;;;21.70;33.20;;;;;;5059331;28;20530;-68
2022/05/25 14:19:05;;;;;;;4.87;0.90;;;21.80;32.20;;;;;;5057601;28;21106;-68
2022/05/25 14:21:53;;;;;;;1.87;0.70;;;22.10;30.10;;;;;;5063117;28;20582;-68
2022/05/25 14:24:41;;;;;;;4.63;0.80;;;22.00;32.30;;;;;;5055231;28;20471;-68
2022/05/25 14:27:32;;;;;;;2.50;1.00;;;21.90;31.00;;;;;;5056315;28;20436;-68
2022/05/25 14:30:23;;;;;;;5.10;1.00;;;21.80;31.70;;;;;;5055983;28;20972;-67
2022/05/25 14:33:11;;;;;;;3.50;0.90;;;21.70;32.50;;;;;;5060800;28;20443;-68
2022/05/25 14:35:59;;;;;;;6.90;0.90;;;21.60;32.80;;;;;;5057547;28;20462;-68
2022/05/25 14:38:45;;;;;;;2.00;0.70;;;21.60;31.50;;;;;;5054326;28;20435;-69
2022/05/25 14:41:44;;;;;;;4.17;0.87;;;21.50;31.10;;;;;;5060602;28;20439;-69
2022/05/25 14:44:39;;;;;;;2.13;0.93;;;21.30;31.60;;;;;;5056310;28;20494;-69
2022/05/25 14:47:33;;;;;;;2.63;0.90;;;21.10;31.20;;;;;;5060154;28;20424;-69
2022/05/25 14:50:21;;;;;;;6.27;0.60;;;21.00;32.60;;;;;;5054849;28;20449;-68
2022/05/25 14:53:11;;;;;;;4.63;0.80;;;21.10;32.80;;;;;;5057187;28;20586;-69
2022/05/25 14:56:01;;;;;;;2.80;0.80;;;21.20;32.30;;;;;;5056501;28;20445;-68
2022/05/25 14:58:49;;;;;;;4.27;0.70;;;21.40;32.90;;;;;;5059234;28;20464;-68
2022/05/25 15:01:36;;;;;;;3.60;0.80;;;21.70;32.00;;;;;;5056586;28;20971;-69
2022/05/25 15:04:31;;;;;;;1.87;0.63;;;21.60;31.00;;;;;;5055898;28;20458;-69
2022/05/25 15:07:24;;;;;;;1.90;0.70;;;21.70;32.80;;;;;;5043722;28;20451;-69
2022/05/25 15:10:11;;;;;;;2.00;0.70;;;21.50;31.20;;;;;;5041644;28;20432;-69
2022/05/25 15:12:57;;;;;;;7.43;1.00;;;21.50;31.60;;;;;;5045238;28;20452;-70
2022/05/25 15:18:51;;;;;;;3.13;0.70;;;21.90;29.50;;;;;;5051037;28;20498;-70
2022/05/25 15:21:38;;;;;;;2.50;0.80;;;22.20;29.00;;;;;;5043020;28;20456;-69
2022/05/25 15:24:26;;;;;;;2.33;0.87;;;22.60;28.60;;;;;;5046351;28;20549;-69
2022/05/25 15:27:23;;;;;;;3.40;0.97;;;22.60;28.50;;;;;;5047075;28;20436;-69
2022/05/25 15:30:27;;;;;;;2.07;0.70;;;22.60;28.50;;;;;;5056141;22;20467;-77
2022/05/25 15:33:14;;;;;;;3.23;0.90;;;22.60;28.60;;;;;;5021241;28;20569;-77